createdAt,value
2017-09-23T00:00:05.040Z,15.37
2017-09-23T00:02:32.454Z,15.03
2017-09-23T00:04:59.987Z,16.30
2017-09-23T00:07:27.426Z,19.27
2017-09-23T00:09:54.912Z,17.83
2017-09-23T00:12:22.463Z,13.93
2017-09-23T00:14:49.889Z,15.47
2017-09-23T00:17:17.711Z,17.93
2017-09-23T00:19:45.195Z,15.83
2017-09-23T00:22:12.644Z,18.00
2017-09-23T00:24:40.071Z,14.47
2017-09-23T00:27:07.562Z,14.93
2017-09-23T00:29:35.001Z,15.87
2017-09-23T00:32:02.430Z,20.53
2017-09-23T00:34:30.282Z,16.43
2017-09-23T00:36:57.701Z,14.53
2017-09-23T00:39:25.361Z,18.50
2017-09-23T00:41:52.788Z,15.87
2017-09-23T00:44:20.606Z,17.63
2017-09-23T00:46:48.239Z,16.47
2017-09-23T00:49:16.123Z,16.50
2017-09-23T00:51:43.554Z,16.13
2017-09-23T00:54:11.478Z,13.80
2017-09-23T00:56:38.935Z,17.40
2017-09-23T00:59:06.371Z,14.60
2017-09-23T01:01:34.201Z,16.63
2017-09-23T01:04:01.635Z,14.90
2017-09-23T01:06:29.193Z,18.20
2017-09-23T01:08:56.627Z,15.40
2017-09-23T01:11:24.054Z,15.80
2017-09-23T01:13:51.498Z,15.77
2017-09-23T01:16:18.935Z,19.10
2017-09-23T01:18:46.976Z,18.80
2017-09-23T01:21:14.906Z,15.27
2017-09-23T01:23:42.346Z,16.37
2017-09-23T01:26:09.768Z,15.90
2017-09-23T01:28:37.787Z,15.37
2017-09-23T01:31:05.229Z,16.30
2017-09-23T01:33:32.708Z,18.23
2017-09-23T01:36:00.160Z,15.90
2017-09-23T01:38:27.595Z,18.07
2017-09-23T01:40:55.549Z,16.97
2017-09-23T01:43:22.980Z,15.20
2017-09-23T01:45:51.437Z,19.60
2017-09-23T01:48:18.872Z,18.23
2017-09-23T01:50:46.365Z,16.00
2017-09-23T01:53:13.864Z,15.20
2017-09-23T01:55:41.336Z,16.17
2017-09-23T01:58:09.033Z,15.50
2017-09-23T02:00:36.881Z,15.10
2017-09-23T02:03:04.345Z,16.03
2017-09-23T02:05:31.829Z,19.10
2017-09-23T02:07:59.721Z,18.57
2017-09-23T02:10:27.177Z,16.73
2017-09-23T02:12:55.651Z,15.67
2017-09-23T02:15:23.495Z,17.53
2017-09-23T02:17:51.010Z,18.93
2017-09-23T02:20:19.335Z,18.93
2017-09-23T02:22:46.854Z,20.13
2017-09-23T02:25:14.389Z,15.53
2017-09-23T02:27:42.287Z,16.93
2017-09-23T02:30:09.750Z,13.73
2017-09-23T02:32:37.218Z,17.07
2017-09-23T02:35:04.685Z,15.57
2017-09-23T02:37:32.147Z,16.10
2017-09-23T02:39:59.640Z,15.23
2017-09-23T02:42:27.149Z,18.87
2017-09-23T02:44:54.680Z,14.00
2017-09-23T02:47:22.204Z,15.80
2017-09-23T02:49:49.835Z,16.80
2017-09-23T02:52:17.394Z,16.90
2017-09-23T02:54:45.284Z,17.07
2017-09-23T02:57:13.626Z,15.70
2017-09-23T02:59:41.175Z,15.90
2017-09-23T03:02:08.668Z,18.17
2017-09-23T03:04:36.558Z,19.23
2017-09-23T03:07:04.084Z,16.13
2017-09-23T03:09:31.561Z,16.77
2017-09-23T03:11:59.541Z,19.00
2017-09-23T03:14:27.504Z,17.33
2017-09-23T03:16:55.008Z,16.23
2017-09-23T03:19:22.611Z,18.23
2017-09-23T03:21:50.084Z,17.10
2017-09-23T03:24:17.545Z,19.23
2017-09-23T03:26:45.607Z,16.83
2017-09-23T03:29:13.126Z,18.93
2017-09-23T03:31:40.665Z,19.00
2017-09-23T03:34:08.651Z,18.47
2017-09-23T03:36:36.544Z,17.50
2017-09-23T03:39:04.054Z,18.30
2017-09-23T03:41:31.976Z,18.73
2017-09-23T03:43:59.466Z,18.97
2017-09-23T03:46:26.980Z,20.53
2017-09-23T03:48:55.041Z,19.23
2017-09-23T03:51:22.968Z,20.70
2017-09-23T03:53:50.572Z,19.67
2017-09-23T03:56:18.121Z,18.80
2017-09-23T03:58:45.702Z,17.47
2017-09-23T04:01:14.070Z,20.67
2017-09-23T04:03:42.142Z,17.47
2017-09-23T04:06:09.611Z,17.43
2017-09-23T04:08:37.077Z,17.70
2017-09-23T04:11:04.569Z,17.03
2017-09-23T04:13:32.516Z,15.67
2017-09-23T04:16:00.076Z,18.33
2017-09-23T04:18:27.587Z,20.37
2017-09-23T04:20:55.094Z,19.47
2017-09-23T04:23:22.546Z,18.70
2017-09-23T04:25:50.017Z,20.00
2017-09-23T04:28:17.717Z,20.60
2017-09-23T04:30:45.610Z,17.33
2017-09-23T04:33:13.135Z,19.00
2017-09-23T04:35:40.707Z,22.50
2017-09-23T04:38:08.208Z,24.10
2017-09-23T04:40:36.035Z,25.13
2017-09-23T04:43:03.525Z,22.77
2017-09-23T04:45:31.944Z,24.13
2017-09-23T04:47:59.645Z,23.93
2017-09-23T04:50:27.446Z,22.47
2017-09-23T04:52:55.361Z,21.57
2017-09-23T04:55:22.901Z,24.00
2017-09-23T04:57:50.559Z,25.53
2017-09-23T05:00:18.001Z,25.30
2017-09-23T05:02:46.043Z,26.93
2017-09-23T05:05:13.532Z,25.20
2017-09-23T05:07:41.508Z,28.63
2017-09-23T05:10:09.357Z,24.93
2017-09-23T05:12:36.986Z,25.97
2017-09-23T05:15:04.459Z,21.87
2017-09-23T05:17:32.669Z,22.57
2017-09-23T05:20:00.236Z,21.07
2017-09-23T05:22:28.186Z,22.97
2017-09-23T05:24:55.735Z,21.93
2017-09-23T05:27:23.211Z,25.33
2017-09-23T05:29:50.693Z,26.63
2017-09-23T05:32:18.425Z,26.40
2017-09-23T05:34:45.898Z,30.27
2017-09-23T05:37:13.338Z,26.53
2017-09-23T05:39:40.795Z,23.23
2017-09-23T05:42:08.244Z,28.03
2017-09-23T05:44:35.774Z,30.43
2017-09-23T05:47:03.657Z,29.17
2017-09-23T05:49:31.107Z,29.97
2017-09-23T05:51:58.617Z,29.30
2017-09-23T05:54:26.098Z,27.20
2017-09-23T05:56:53.559Z,27.47
2017-09-23T05:59:21.009Z,21.83
2017-09-23T06:01:48.460Z,31.57
2017-09-23T06:04:16.695Z,28.73
2017-09-23T06:06:44.215Z,29.90
2017-09-23T06:09:11.702Z,27.07
2017-09-23T06:11:39.276Z,23.30
2017-09-23T06:14:06.718Z,24.00
2017-09-23T06:16:34.190Z,25.53
2017-09-23T06:19:01.648Z,30.20
2017-09-23T06:21:29.105Z,31.90
2017-09-23T06:23:56.752Z,29.67
2017-09-23T06:26:24.213Z,30.30
2017-09-23T06:28:51.662Z,28.63
2017-09-23T06:31:19.233Z,27.10
2017-09-23T06:33:46.672Z,33.40
2017-09-23T06:36:14.534Z,32.73
2017-09-23T06:38:42.488Z,42.30
2017-09-23T06:41:11.397Z,35.27
2017-09-23T06:43:39.234Z,33.97
2017-09-23T06:46:06.708Z,31.73
2017-09-23T06:48:34.216Z,31.13
2017-09-23T06:51:01.763Z,34.77
2017-09-23T06:53:29.715Z,36.93
2017-09-23T06:55:57.152Z,38.07
2017-09-23T06:58:24.733Z,35.97
2017-09-23T07:00:52.390Z,42.77
2017-09-23T07:03:19.857Z,43.57
2017-09-23T07:05:47.346Z,45.83
2017-09-23T07:08:14.823Z,52.37
2017-09-23T07:10:42.659Z,56.17
2017-09-23T07:13:10.219Z,52.67
2017-09-23T07:15:37.691Z,56.87
2017-09-23T07:18:05.216Z,53.73
2017-09-23T07:20:32.688Z,55.20
2017-09-23T07:23:00.187Z,63.57
2017-09-23T07:25:27.720Z,52.17
2017-09-23T07:27:55.238Z,45.90
2017-09-23T07:30:23.263Z,52.40
2017-09-23T07:32:50.705Z,49.47
2017-09-23T07:35:18.182Z,53.10
2017-09-23T07:37:45.783Z,47.30
2017-09-23T07:40:13.273Z,54.20
2017-09-23T07:42:41.235Z,47.10
2017-09-23T07:45:08.723Z,55.23
2017-09-23T07:47:36.226Z,53.00
2017-09-23T07:50:03.705Z,56.10
2017-09-23T07:52:31.182Z,57.83
2017-09-23T07:54:58.672Z,55.07
2017-09-23T07:57:26.193Z,55.90
2017-09-23T07:59:53.690Z,50.10
2017-09-23T08:02:21.176Z,54.73
2017-09-23T08:04:48.690Z,60.77
2017-09-23T08:07:16.581Z,56.47
2017-09-23T08:09:44.415Z,58.00
2017-09-23T08:12:12.270Z,50.90
2017-09-23T08:14:39.780Z,51.83
2017-09-23T08:17:07.632Z,48.10
2017-09-23T08:19:35.525Z,51.63
2017-09-23T08:22:03.266Z,53.33
2017-09-23T08:24:30.729Z,59.33
2017-09-23T08:26:58.627Z,47.73
2017-09-23T08:29:26.095Z,47.00
2017-09-23T08:31:53.542Z,47.83
2017-09-23T08:34:21.480Z,48.10
2017-09-23T08:36:49.388Z,52.07
2017-09-23T08:39:17.318Z,51.53
2017-09-23T08:41:44.810Z,49.40
2017-09-23T08:44:12.714Z,48.17
2017-09-23T08:46:40.231Z,45.87
2017-09-23T08:49:07.801Z,48.77
2017-09-23T08:51:35.290Z,50.67
2017-09-23T08:54:02.810Z,44.67
2017-09-23T08:56:30.268Z,47.40
2017-09-23T08:58:57.778Z,47.90
2017-09-23T09:01:25.660Z,42.93
2017-09-23T09:03:53.507Z,48.53
2017-09-23T09:06:21.580Z,51.50
2017-09-23T09:08:49.456Z,50.80
2017-09-23T09:11:17.345Z,45.43
2017-09-23T09:13:45.645Z,53.00
2017-09-23T09:16:13.108Z,51.37
2017-09-23T09:18:41.073Z,41.10
2017-09-23T09:21:08.723Z,43.50
2017-09-23T09:23:36.272Z,43.47
2017-09-23T09:26:04.263Z,43.70
2017-09-23T09:28:32.144Z,47.20
2017-09-23T09:31:00.286Z,43.10
2017-09-23T09:33:28.290Z,44.63
2017-09-23T09:35:56.365Z,44.57
2017-09-23T09:38:25.060Z,47.97
2017-09-23T09:40:53.204Z,49.97
2017-09-23T09:43:22.612Z,44.10
2017-09-23T09:45:50.662Z,43.37
2017-09-23T09:48:18.815Z,51.97
2017-09-23T09:50:46.523Z,49.67
2017-09-23T09:53:14.032Z,45.20
2017-09-23T09:55:41.514Z,44.57
2017-09-23T09:58:09.231Z,39.80
2017-09-23T10:00:36.834Z,39.57
2017-09-23T10:03:04.289Z,38.97
2017-09-23T10:05:31.795Z,43.20
2017-09-23T10:07:59.560Z,39.60
2017-09-23T10:10:27.113Z,32.47
2017-09-23T10:12:54.598Z,34.90
2017-09-23T10:15:22.613Z,37.07
2017-09-23T10:17:50.395Z,30.80
2017-09-23T10:20:18.828Z,37.90
2017-09-23T10:22:46.255Z,37.07
2017-09-23T10:25:13.754Z,33.53
2017-09-23T10:27:41.397Z,31.60
2017-09-23T10:30:09.656Z,35.90
2017-09-23T10:32:37.237Z,36.03
2017-09-23T10:35:06.012Z,35.47
2017-09-23T10:37:33.558Z,38.20
2017-09-23T10:40:01.472Z,37.33
2017-09-23T10:42:29.697Z,36.97
2017-09-23T10:44:58.182Z,35.00
2017-09-23T10:47:26.051Z,35.57
2017-09-23T10:49:53.996Z,32.60
2017-09-23T10:52:22.615Z,33.53
2017-09-23T10:54:50.125Z,31.83
2017-09-23T10:57:17.740Z,28.23
2017-09-23T10:59:45.670Z,29.93
2017-09-23T11:02:13.208Z,29.63
2017-09-23T11:04:40.983Z,30.50
2017-09-23T11:07:08.555Z,31.90
2017-09-23T11:09:36.141Z,29.40
2017-09-23T11:12:04.064Z,31.63
2017-09-23T11:14:31.934Z,29.93
2017-09-23T11:16:59.459Z,33.30
2017-09-23T11:19:27.037Z,31.97
2017-09-23T11:21:54.974Z,31.07
2017-09-23T11:24:23.172Z,28.77
2017-09-23T11:26:51.370Z,37.77
2017-09-23T11:29:18.971Z,25.30
2017-09-23T11:31:46.492Z,28.97
2017-09-23T11:34:14.257Z,27.23
2017-09-23T11:36:41.844Z,30.47
2017-09-23T11:39:09.354Z,23.73
2017-09-23T11:41:36.926Z,30.37
2017-09-23T11:44:04.438Z,25.30
2017-09-23T11:46:33.104Z,24.67
2017-09-23T11:49:00.974Z,25.37
2017-09-23T11:51:28.493Z,22.70
2017-09-23T11:53:55.954Z,25.03
2017-09-23T11:56:23.676Z,28.33
2017-09-23T11:58:51.197Z,27.03
2017-09-23T12:01:18.726Z,26.47
2017-09-23T12:03:46.205Z,26.73
2017-09-23T12:06:13.712Z,23.17
2017-09-23T12:08:41.228Z,24.37
2017-09-23T12:11:08.774Z,23.47
2017-09-23T12:13:36.928Z,22.70
2017-09-23T12:16:04.514Z,23.93
2017-09-23T12:18:32.523Z,25.90
2017-09-23T12:21:00.123Z,30.43
2017-09-23T12:23:27.654Z,30.37
2017-09-23T12:25:55.261Z,32.10
2017-09-23T12:28:23.219Z,30.60
2017-09-23T12:30:50.740Z,28.80
2017-09-23T12:33:18.485Z,28.50
2017-09-23T12:35:46.479Z,31.00
2017-09-23T12:38:13.998Z,28.17
2017-09-23T12:40:41.692Z,28.17
2017-09-23T12:43:09.785Z,30.47
2017-09-23T12:45:37.284Z,27.93
2017-09-23T12:48:04.933Z,26.80
2017-09-23T12:50:32.407Z,25.83
2017-09-23T12:53:00.822Z,27.07
2017-09-23T12:55:30.013Z,29.83
2017-09-23T12:57:57.510Z,31.10
2017-09-23T13:00:25.156Z,31.97
2017-09-23T13:02:52.831Z,29.27
2017-09-23T13:05:20.782Z,31.03
2017-09-23T13:07:49.122Z,29.33
2017-09-23T13:10:16.939Z,27.03
2017-09-23T13:12:44.896Z,27.20
2017-09-23T13:15:12.521Z,25.13
2017-09-23T13:17:40.712Z,24.80
2017-09-23T13:20:08.224Z,22.47
2017-09-23T13:22:35.757Z,22.53
2017-09-23T13:25:04.034Z,19.70
2017-09-23T13:27:32.169Z,18.80
2017-09-23T13:30:00.250Z,18.77
2017-09-23T13:32:28.576Z,20.63
2017-09-23T13:34:56.651Z,16.60
2017-09-23T13:37:24.187Z,17.63
2017-09-23T13:39:51.846Z,19.20
2017-09-23T13:42:19.391Z,21.70
2017-09-23T13:44:47.332Z,18.73
2017-09-23T13:47:15.761Z,17.90
2017-09-23T13:49:43.206Z,20.40
2017-09-23T13:52:11.487Z,18.80
2017-09-23T13:54:39.403Z,16.60
2017-09-23T13:57:06.889Z,17.93
2017-09-23T13:59:34.551Z,17.40
2017-09-23T14:02:02.131Z,15.90
2017-09-23T14:04:29.916Z,17.13
2017-09-23T14:06:57.431Z,15.80
2017-09-23T14:09:25.067Z,20.50
2017-09-23T14:11:52.608Z,20.27
2017-09-23T14:14:20.574Z,16.23
2017-09-23T14:16:48.347Z,18.60
2017-09-23T14:19:16.276Z,17.20
2017-09-23T14:21:43.821Z,16.00
2017-09-23T14:24:11.854Z,17.37
2017-09-23T14:26:39.336Z,15.07
2017-09-23T14:29:07.299Z,13.47
2017-09-23T14:31:35.230Z,11.73
2017-09-23T14:34:03.604Z,11.40
2017-09-23T14:36:31.119Z,13.67
2017-09-23T14:38:59.221Z,15.77
2017-09-23T14:41:26.778Z,17.87
2017-09-23T14:43:54.722Z,15.27
2017-09-23T14:46:23.449Z,15.10
2017-09-23T14:48:51.136Z,12.93
2017-09-23T14:51:18.645Z,17.17
2017-09-23T14:53:46.605Z,14.23
2017-09-23T14:56:14.209Z,11.00
2017-09-23T14:58:41.766Z,14.00
2017-09-23T15:01:09.841Z,15.90
2017-09-23T15:03:37.773Z,14.80
2017-09-23T15:06:11.478Z,15.20
2017-09-23T15:08:39.213Z,15.90
2017-09-23T15:11:07.739Z,13.40
2017-09-23T15:13:35.488Z,17.80
2017-09-23T15:16:02.985Z,13.97
2017-09-23T15:18:30.494Z,15.80
2017-09-23T15:20:58.122Z,14.63
2017-09-23T15:23:26.784Z,14.60
2017-09-23T15:25:54.305Z,14.90
2017-09-23T15:28:21.979Z,17.27
2017-09-23T15:30:49.650Z,16.23
2017-09-23T15:33:17.252Z,17.73
2017-09-23T15:35:45.159Z,17.47
2017-09-23T15:38:12.793Z,18.20
2017-09-23T15:40:40.320Z,16.70
2017-09-23T15:43:07.940Z,20.53
2017-09-23T15:45:35.885Z,21.40
2017-09-23T15:48:03.863Z,16.80
2017-09-23T15:50:31.704Z,23.57
2017-09-23T15:52:59.132Z,23.03
2017-09-23T15:55:26.679Z,25.80
2017-09-23T15:57:54.198Z,25.63
2017-09-23T16:00:21.764Z,23.37
2017-09-23T16:02:49.382Z,22.37
2017-09-23T16:05:16.906Z,20.60
2017-09-23T16:07:44.415Z,20.80
2017-09-23T16:10:12.299Z,23.00
2017-09-23T16:12:40.897Z,22.33
2017-09-23T16:15:08.444Z,22.57
2017-09-23T16:17:35.940Z,22.13
2017-09-23T16:20:03.659Z,23.00
2017-09-23T16:22:31.689Z,19.97
2017-09-23T16:24:59.255Z,21.93
2017-09-23T16:27:27.016Z,17.27
2017-09-23T16:29:54.572Z,19.80
2017-09-23T16:35:13.071Z,17.97
2017-09-23T16:37:40.587Z,18.60
2017-09-23T16:40:08.264Z,16.83
2017-09-23T16:42:36.073Z,16.07
2017-09-23T16:45:03.612Z,15.83
2017-09-23T16:47:31.127Z,17.90
2017-09-23T16:49:59.182Z,20.10
2017-09-23T16:52:26.760Z,17.60
2017-09-23T16:54:54.267Z,19.20
2017-09-23T16:57:21.947Z,22.63
2017-09-23T16:59:49.503Z,21.97
2017-09-23T17:02:16.962Z,20.43
2017-09-23T17:04:44.605Z,19.03
2017-09-23T17:07:12.482Z,21.93
2017-09-23T17:09:39.884Z,21.43
2017-09-23T17:12:07.460Z,24.60
2017-09-23T17:14:35.015Z,22.67
2017-09-23T17:17:02.552Z,26.80
2017-09-23T17:19:30.396Z,31.90
2017-09-23T17:21:58.345Z,22.07
2017-09-23T17:24:25.839Z,20.27
2017-09-23T17:26:53.359Z,20.57
2017-09-23T17:29:20.938Z,22.20
2017-09-23T17:31:48.558Z,21.10
2017-09-23T17:34:16.254Z,18.30
2017-09-23T17:36:43.815Z,21.63
2017-09-23T17:39:11.391Z,22.33
2017-09-23T17:41:38.914Z,20.27
2017-09-23T17:44:06.353Z,18.57
2017-09-23T17:46:33.823Z,19.77
2017-09-23T17:49:01.283Z,26.30
2017-09-23T17:51:28.999Z,26.20
2017-09-23T17:53:56.424Z,29.70
2017-09-23T17:56:23.903Z,31.13
2017-09-23T17:58:51.462Z,27.40
2017-09-23T18:01:18.900Z,22.17
2017-09-23T18:03:46.458Z,22.90
2017-09-23T18:06:13.933Z,21.17
2017-09-23T18:08:41.368Z,22.20
2017-09-23T18:11:09.054Z,19.93
2017-09-23T18:13:36.490Z,22.60
2017-09-23T18:16:03.938Z,23.20
2017-09-23T18:18:31.791Z,24.17
2017-09-23T18:20:59.229Z,21.87
2017-09-23T18:23:26.656Z,24.60
2017-09-23T18:25:54.139Z,19.93
2017-09-23T18:28:21.622Z,20.30
2017-09-23T18:30:49.064Z,24.37
2017-09-23T18:33:17.028Z,24.53
2017-09-23T18:35:44.502Z,29.40
2017-09-23T18:38:11.941Z,29.53
2017-09-23T18:40:40.248Z,30.80
2017-09-23T18:43:07.680Z,31.07
2017-09-23T18:45:35.109Z,29.47
2017-09-23T18:48:02.976Z,28.80
2017-09-23T18:50:30.419Z,33.13
2017-09-23T18:52:57.968Z,31.50
2017-09-23T18:55:25.810Z,31.23
2017-09-23T18:57:53.306Z,29.60
2017-09-23T19:00:20.755Z,31.40
2017-09-23T19:02:48.208Z,30.87
2017-09-23T19:05:15.823Z,32.77
2017-09-23T19:07:43.378Z,39.13
2017-09-23T19:10:11.016Z,28.50
2017-09-23T19:12:38.463Z,35.23
2017-09-23T19:15:05.896Z,34.83
2017-09-23T19:17:33.749Z,34.73
2017-09-23T19:20:01.178Z,37.23
2017-09-23T19:22:28.607Z,31.97
2017-09-23T19:24:56.071Z,30.20
2017-09-23T19:27:25.591Z,33.53
2017-09-23T19:29:53.029Z,32.97
2017-09-23T19:32:20.869Z,32.43
2017-09-23T19:34:48.320Z,25.70
2017-09-23T19:37:15.750Z,30.27
2017-09-23T19:39:43.202Z,34.13
2017-09-23T19:42:10.678Z,32.57
2017-09-23T19:44:38.321Z,34.17
2017-09-23T19:47:05.773Z,34.30
2017-09-23T19:49:33.663Z,30.07
2017-09-23T19:52:01.495Z,32.90
2017-09-23T19:54:28.956Z,28.00
2017-09-23T19:56:56.379Z,32.87
2017-09-23T19:59:24.051Z,31.20
2017-09-23T20:01:51.503Z,29.67
2017-09-23T20:04:18.980Z,30.43
2017-09-23T20:06:46.446Z,33.90
2017-09-23T20:09:13.882Z,34.50
2017-09-23T20:11:41.349Z,29.87
2017-09-23T20:14:09.027Z,30.47
2017-09-23T20:16:36.477Z,33.57
2017-09-23T20:19:03.916Z,30.90
2017-09-23T20:21:32.004Z,30.60
2017-09-23T20:23:59.438Z,28.90
2017-09-23T20:26:27.254Z,31.20
2017-09-23T20:28:54.915Z,33.23
2017-09-23T20:31:22.346Z,30.93
2017-09-23T20:33:49.776Z,31.40
2017-09-23T20:36:17.517Z,29.90
2017-09-23T20:38:44.941Z,31.43
2017-09-23T20:41:12.379Z,31.40
2017-09-23T20:43:40.364Z,31.20
2017-09-23T20:46:08.191Z,31.83
2017-09-23T20:48:35.663Z,29.53
2017-09-23T20:51:03.082Z,30.80
2017-09-23T20:53:30.500Z,28.40
2017-09-23T20:55:58.218Z,33.53
2017-09-23T20:58:25.664Z,28.90
2017-09-23T21:00:53.149Z,30.60
2017-09-23T21:03:20.703Z,28.73
2017-09-23T21:05:48.160Z,30.00
2017-09-23T21:08:15.571Z,44.20
2017-09-23T21:10:43.191Z,107.30
2017-09-23T21:13:10.664Z,99.13
2017-09-23T21:15:38.116Z,49.53
2017-09-23T21:18:05.584Z,41.23
2017-09-23T21:20:33.019Z,36.20
2017-09-23T21:23:00.459Z,37.73
2017-09-23T21:25:27.890Z,34.80
2017-09-23T21:27:55.318Z,31.63
2017-09-23T21:30:22.767Z,36.70
2017-09-23T21:32:50.209Z,33.53
2017-09-23T21:35:18.056Z,35.83
2017-09-23T21:37:45.514Z,32.13
2017-09-23T21:40:12.949Z,33.40
2017-09-23T21:42:40.386Z,35.23
2017-09-23T21:45:07.966Z,33.80
2017-09-23T21:47:35.430Z,35.50
2017-09-23T21:50:02.892Z,34.83
2017-09-23T21:52:30.337Z,30.57
2017-09-23T21:54:57.816Z,33.80
2017-09-23T21:57:26.262Z,38.37
2017-09-23T21:59:54.099Z,34.20
2017-09-23T22:02:21.530Z,33.33
2017-09-23T22:04:48.976Z,34.53
2017-09-23T22:07:16.419Z,31.90
2017-09-23T22:09:44.248Z,35.67
2017-09-23T22:12:11.705Z,37.77
2017-09-23T22:14:39.354Z,31.30
2017-09-23T22:17:06.817Z,37.60
2017-09-23T22:19:34.243Z,35.37
2017-09-23T22:22:02.156Z,35.73
2017-09-23T22:24:29.588Z,35.10
2017-09-23T22:26:57.064Z,31.53
2017-09-23T22:29:24.671Z,35.10
2017-09-23T22:31:52.086Z,36.40
2017-09-23T22:34:19.516Z,31.10
2017-09-23T22:36:47.389Z,31.03
2017-09-23T22:39:15.614Z,34.50
2017-09-23T22:41:43.036Z,36.40
2017-09-23T22:44:11.786Z,34.83
2017-09-23T22:46:39.348Z,38.30
2017-09-23T22:49:06.779Z,35.80
2017-09-23T22:51:34.362Z,36.50
2017-09-23T22:54:01.789Z,34.80
2017-09-23T22:56:29.282Z,34.60
2017-09-23T22:58:56.730Z,34.07
2017-09-23T23:01:24.209Z,32.07
2017-09-23T23:03:51.637Z,34.50
2017-09-23T23:06:19.238Z,32.57
2017-09-23T23:08:46.676Z,35.77
2017-09-23T23:11:14.140Z,30.67
2017-09-23T23:13:41.731Z,33.23
2017-09-23T23:16:09.155Z,33.33
2017-09-23T23:18:36.647Z,32.70
2017-09-23T23:21:04.101Z,32.00
2017-09-23T23:23:31.542Z,34.17
2017-09-23T23:25:59.359Z,31.03
2017-09-23T23:28:26.800Z,34.40
2017-09-23T23:30:54.355Z,36.10
2017-09-23T23:33:21.801Z,32.27
2017-09-23T23:35:49.493Z,35.10
2017-09-23T23:38:16.959Z,33.60
2017-09-23T23:40:44.407Z,34.00
2017-09-23T23:43:11.887Z,32.73
2017-09-23T23:45:39.324Z,36.83
2017-09-23T23:48:06.744Z,31.40
2017-09-23T23:50:34.217Z,32.17
2017-09-23T23:53:02.052Z,35.87
2017-09-23T23:55:29.488Z,31.67
2017-09-23T23:57:56.967Z,32.97
